sensor_id;sensor_type;location;lat;lon;timestamp;pressure;altitude;pressure_sealevel;temperature;humidity
4199;BME280;2113;50.946;14.610;2023-05-09T00:00:17;97647.03;;;5.13;64.52
4199;BME280;2113;50.946;14.610;2023-05-09T00:02:46;97653.13;;;5.12;63.64
4199;BME280;2113;50.946;14.610;2023-05-09T00:05:14;97639.81;;;5.18;63.02
4199;BME280;2113;50.946;14.610;2023-05-09T00:07:43;97647.38;;;5.07;64.10
4199;BME280;2113;50.946;14.610;2023-05-09T00:10:13;97641.84;;;5.13;64.01
4199;BME280;2113;50.946;14.610;2023-05-09T00:12:42;97647.09;;;4.97;64.76
4199;BME280;2113;50.946;14.610;2023-05-09T00:15:10;97648.75;;;4.98;64.63
4199;BME280;2113;50.946;14.610;2023-05-09T00:17:40;97642.84;;;4.96;63.94
4199;BME280;2113;50.946;14.610;2023-05-09T00:20:08;97638.66;;;4.94;64.15
4199;BME280;2113;50.946;14.610;2023-05-09T00:22:38;97641.25;;;4.94;64.33
4199;BME280;2113;50.946;14.610;2023-05-09T00:25:08;97638.75;;;4.92;64.54
4199;BME280;2113;50.946;14.610;2023-05-09T00:27:39;97636.28;;;4.91;64.14
4199;BME280;2113;50.946;14.610;2023-05-09T00:30:08;97640.91;;;5.00;63.41
4199;BME280;2113;50.946;14.610;2023-05-09T00:32:36;97638.50;;;4.97;63.43
4199;BME280;2113;50.946;14.610;2023-05-09T00:35:07;97638.88;;;4.91;64.53
4199;BME280;2113;50.946;14.610;2023-05-09T00:37:36;97634.03;;;4.85;63.62
4199;BME280;2113;50.946;14.610;2023-05-09T00:40:05;97625.34;;;4.86;64.16
4199;BME280;2113;50.946;14.610;2023-05-09T00:42:35;97630.63;;;4.84;62.80
4199;BME280;2113;50.946;14.610;2023-05-09T00:45:07;97630.53;;;4.86;63.67
4199;BME280;2113;50.946;14.610;2023-05-09T00:47:39;97628.22;;;4.81;63.30
4199;BME280;2113;50.946;14.610;2023-05-09T00:50:08;97628.53;;;4.91;63.42
4199;BME280;2113;50.946;14.610;2023-05-09T00:52:37;97634.22;;;4.82;64.18
4199;BME280;2113;50.946;14.610;2023-05-09T00:55:07;97630.16;;;4.78;64.17
4199;BME280;2113;50.946;14.610;2023-05-09T00:57:35;97624.66;;;4.68;65.68
4199;BME280;2113;50.946;14.610;2023-05-09T01:00:07;97626.91;;;4.74;64.15
4199;BME280;2113;50.946;14.610;2023-05-09T01:02:40;97624.28;;;4.60;65.85
4199;BME280;2113;50.946;14.610;2023-05-09T01:05:09;97623.47;;;4.59;64.85
4199;BME280;2113;50.946;14.610;2023-05-09T01:07:44;97622.97;;;4.53;65.84
4199;BME280;2113;50.946;14.610;2023-05-09T01:10:20;97613.13;;;4.59;64.52
4199;BME280;2113;50.946;14.610;2023-05-09T01:12:54;97607.53;;;4.51;65.58
4199;BME280;2113;50.946;14.610;2023-05-09T01:15:31;97611.31;;;4.46;66.06
4199;BME280;2113;50.946;14.610;2023-05-09T01:18:05;97604.00;;;4.38;66.87
4199;BME280;2113;50.946;14.610;2023-05-09T01:20:38;97604.06;;;4.22;67.53
4199;BME280;2113;50.946;14.610;2023-05-09T01:23:27;97603.56;;;4.00;68.39
4199;BME280;2113;50.946;14.610;2023-05-09T01:26:04;97597.72;;;4.12;66.87
4199;BME280;2113;50.946;14.610;2023-05-09T01:28:45;97588.13;;;4.14;67.93
4199;BME280;2113;50.946;14.610;2023-05-09T01:31:20;97590.03;;;4.11;67.77
4199;BME280;2113;50.946;14.610;2023-05-09T01:33:55;97590.38;;;4.20;66.90
4199;BME280;2113;50.946;14.610;2023-05-09T01:36:26;97593.75;;;4.07;67.60
4199;BME280;2113;50.946;14.610;2023-05-09T01:39:01;97598.75;;;4.10;67.56
4199;BME280;2113;50.946;14.610;2023-05-09T01:41:33;97594.06;;;4.01;68.54
4199;BME280;2113;50.946;14.610;2023-05-09T01:44:05;97586.63;;;4.10;67.87
4199;BME280;2113;50.946;14.610;2023-05-09T01:46:37;97587.66;;;4.08;67.50
4199;BME280;2113;50.946;14.610;2023-05-09T01:49:07;97585.25;;;4.05;68.62
4199;BME280;2113;50.946;14.610;2023-05-09T01:51:37;97577.88;;;4.13;67.69
4199;BME280;2113;50.946;14.610;2023-05-09T01:54:10;97585.25;;;3.89;69.10
4199;BME280;2113;50.946;14.610;2023-05-09T01:56:41;97577.88;;;3.67;70.43
4199;BME280;2113;50.946;14.610;2023-05-09T01:59:10;97577.38;;;3.61;70.56
4199;BME280;2113;50.946;14.610;2023-05-09T02:01:44;97570.22;;;3.66;71.25
4199;BME280;2113;50.946;14.610;2023-05-09T02:04:15;97571.03;;;3.66;70.30
4199;BME280;2113;50.946;14.610;2023-05-09T02:06:47;97571.13;;;3.65;71.31
4199;BME280;2113;50.946;14.610;2023-05-09T02:09:18;97574.38;;;3.52;71.39
4199;BME280;2113;50.946;14.610;2023-05-09T02:11:47;97569.28;;;3.51;70.60
4199;BME280;2113;50.946;14.610;2023-05-09T02:14:16;97560.28;;;3.42;72.31
4199;BME280;2113;50.946;14.610;2023-05-09T02:16:46;97560.13;;;3.45;71.47
4199;BME280;2113;50.946;14.610;2023-05-09T02:19:16;97554.03;;;3.46;71.23
4199;BME280;2113;50.946;14.610;2023-05-09T02:21:44;97549.47;;;3.36;71.40
4199;BME280;2113;50.946;14.610;2023-05-09T02:24:13;97558.97;;;3.35;71.79
4199;BME280;2113;50.946;14.610;2023-05-09T02:26:41;97559.03;;;3.34;72.26
4199;BME280;2113;50.946;14.610;2023-05-09T02:29:10;97554.38;;;3.40;71.65
4199;BME280;2113;50.946;14.610;2023-05-09T02:31:39;97552.66;;;3.41;70.96
4199;BME280;2113;50.946;14.610;2023-05-09T02:34:11;97559.13;;;3.48;71.57
4199;BME280;2113;50.946;14.610;2023-05-09T02:36:40;97560.53;;;3.38;72.50
4199;BME280;2113;50.946;14.610;2023-05-09T02:39:09;97550.31;;;3.36;71.52
4199;BME280;2113;50.946;14.610;2023-05-09T02:41:37;97550.63;;;3.30;72.17
4199;BME280;2113;50.946;14.610;2023-05-09T02:44:06;97547.47;;;3.25;72.37
4199;BME280;2113;50.946;14.610;2023-05-09T02:46:34;97545.44;;;3.30;72.42
4199;BME280;2113;50.946;14.610;2023-05-09T02:49:02;97546.88;;;3.20;73.26
4199;BME280;2113;50.946;14.610;2023-05-09T02:51:32;97543.47;;;3.19;73.37
4199;BME280;2113;50.946;14.610;2023-05-09T02:54:00;97550.53;;;3.16;74.08
4199;BME280;2113;50.946;14.610;2023-05-09T02:56:29;97549.13;;;3.10;74.84
4199;BME280;2113;50.946;14.610;2023-05-09T02:58:58;97539.03;;;3.06;74.97
4199;BME280;2113;50.946;14.610;2023-05-09T03:01:26;97543.19;;;3.08;74.26
4199;BME280;2113;50.946;14.610;2023-05-09T03:03:54;97541.63;;;3.21;73.98
4199;BME280;2113;50.946;14.610;2023-05-09T03:06:23;97545.72;;;3.26;72.87
4199;BME280;2113;50.946;14.610;2023-05-09T03:08:53;97542.31;;;3.25;72.98
4199;BME280;2113;50.946;14.610;2023-05-09T03:11:24;97539.06;;;3.21;73.32
4199;BME280;2113;50.946;14.610;2023-05-09T03:13:52;97542.13;;;3.28;72.25
4199;BME280;2113;50.946;14.610;2023-05-09T03:16:20;97538.63;;;3.29;72.13
4199;BME280;2113;50.946;14.610;2023-05-09T03:18:50;97537.72;;;3.46;70.97
4199;BME280;2113;50.946;14.610;2023-05-09T03:21:18;97539.22;;;3.50;70.68
4199;BME280;2113;50.946;14.610;2023-05-09T03:23:47;97533.38;;;3.31;72.32
4199;BME280;2113;50.946;14.610;2023-05-09T03:26:17;97532.81;;;3.26;72.44
4199;BME280;2113;50.946;14.610;2023-05-09T03:28:46;97535.88;;;3.16;73.16
4199;BME280;2113;50.946;14.610;2023-05-09T03:31:15;97534.81;;;3.20;72.60
4199;BME280;2113;50.946;14.610;2023-05-09T03:33:43;97521.06;;;3.20;73.37
4199;BME280;2113;50.946;14.610;2023-05-09T03:36:11;97528.13;;;3.16;73.76
4199;BME280;2113;50.946;14.610;2023-05-09T03:38:42;97532.81;;;3.26;72.83
4199;BME280;2113;50.946;14.610;2023-05-09T03:41:13;97534.88;;;3.35;72.35
4199;BME280;2113;50.946;14.610;2023-05-09T03:43:46;97529.28;;;3.58;70.74
4199;BME280;2113;50.946;14.610;2023-05-09T03:46:14;97526.22;;;3.67;70.33
4199;BME280;2113;50.946;14.610;2023-05-09T03:48:46;97532.84;;;3.71;69.94
4199;BME280;2113;50.946;14.610;2023-05-09T03:51:15;97521.69;;;3.71;70.13
4199;BME280;2113;50.946;14.610;2023-05-09T03:53:45;97527.53;;;3.58;71.04
4199;BME280;2113;50.946;14.610;2023-05-09T03:56:14;97531.03;;;3.57;70.83
4199;BME280;2113;50.946;14.610;2023-05-09T03:58:49;97531.88;;;3.58;71.81
4199;BME280;2113;50.946;14.610;2023-05-09T04:01:19;97531.31;;;3.53;71.98
4199;BME280;2113;50.946;14.610;2023-05-09T04:03:47;97529.66;;;3.52;71.70
4199;BME280;2113;50.946;14.610;2023-05-09T04:06:16;97529.66;;;3.52;72.42
4199;BME280;2113;50.946;14.610;2023-05-09T04:08:44;97529.97;;;3.62;71.39
4199;BME280;2113;50.946;14.610;2023-05-09T04:11:15;97525.78;;;3.75;70.49
4199;BME280;2113;50.946;14.610;2023-05-09T04:13:46;97532.53;;;3.77;70.32
4199;BME280;2113;50.946;14.610;2023-05-09T04:16:25;97527.94;;;3.82;70.17
4199;BME280;2113;50.946;14.610;2023-05-09T04:18:54;97530.75;;;3.93;69.46
4199;BME280;2113;50.946;14.610;2023-05-09T04:21:26;97526.50;;;3.92;69.98
4199;BME280;2113;50.946;14.610;2023-05-09T04:23:58;97535.56;;;4.00;69.43
4199;BME280;2113;50.946;14.610;2023-05-09T04:26:35;97529.69;;;4.12;68.48
4199;BME280;2113;50.946;14.610;2023-05-09T04:29:09;97530.09;;;4.20;68.78
4199;BME280;2113;50.946;14.610;2023-05-09T04:31:39;97529.91;;;4.23;68.25
4199;BME280;2113;50.946;14.610;2023-05-09T04:34:10;97522.78;;;4.26;68.51
4199;BME280;2113;50.946;14.610;2023-05-09T04:36:39;97529.84;;;4.39;68.21
4199;BME280;2113;50.946;14.610;2023-05-09T04:39:08;97534.75;;;4.43;67.91
4199;BME280;2113;50.946;14.610;2023-05-09T04:41:40;97529.84;;;4.53;66.63
4199;BME280;2113;50.946;14.610;2023-05-09T04:44:10;97527.00;;;4.57;67.30
4199;BME280;2113;50.946;14.610;2023-05-09T04:46:41;97533.75;;;4.60;67.33
4199;BME280;2113;50.946;14.610;2023-05-09T04:49:11;97526.38;;;4.68;67.38
4199;BME280;2113;50.946;14.610;2023-05-09T04:51:41;97529.03;;;4.81;66.66
4199;BME280;2113;50.946;14.610;2023-05-09T04:54:10;97528.69;;;4.87;67.09
4199;BME280;2113;50.946;14.610;2023-05-09T04:56:39;97524.88;;;4.92;66.75
4199;BME280;2113;50.946;14.610;2023-05-09T04:59:08;97524.69;;;5.10;65.38
4199;BME280;2113;50.946;14.610;2023-05-09T05:01:36;97527.00;;;5.14;64.73
4199;BME280;2113;50.946;14.610;2023-05-09T05:04:06;97528.09;;;5.24;63.43
4199;BME280;2113;50.946;14.610;2023-05-09T05:06:36;97519.03;;;5.31;64.87
4199;BME280;2113;50.946;14.610;2023-05-09T05:09:05;97530.09;;;5.33;64.37
4199;BME280;2113;50.946;14.610;2023-05-09T05:11:33;97519.47;;;5.38;64.37
4199;BME280;2113;50.946;14.610;2023-05-09T05:14:03;97523.22;;;5.47;64.13
4199;BME280;2113;50.946;14.610;2023-05-09T05:16:58;97526.00;;;5.58;64.47
4199;BME280;2113;50.946;14.610;2023-05-09T05:19:28;97520.22;;;5.67;60.37
4199;BME280;2113;50.946;14.610;2023-05-09T05:21:57;97517.03;;;5.76;61.17
4199;BME280;2113;50.946;14.610;2023-05-09T05:24:26;97515.63;;;5.85;61.49
4199;BME280;2113;50.946;14.610;2023-05-09T05:26:55;97512.66;;;5.91;60.96
4199;BME280;2113;50.946;14.610;2023-05-09T05:29:24;97519.31;;;5.95;61.96
4199;BME280;2113;50.946;14.610;2023-05-09T05:31:53;97516.00;;;6.05;60.71
4199;BME280;2113;50.946;14.610;2023-05-09T05:34:22;97517.59;;;6.21;60.03
4199;BME280;2113;50.946;14.610;2023-05-09T05:36:51;97519.91;;;6.25;60.73
4199;BME280;2113;50.946;14.610;2023-05-09T05:39:21;97516.78;;;6.33;60.35
4199;BME280;2113;50.946;14.610;2023-05-09T05:41:51;97518.25;;;6.37;58.32
4199;BME280;2113;50.946;14.610;2023-05-09T05:44:20;97512.53;;;6.45;59.42
4199;BME280;2113;50.946;14.610;2023-05-09T05:46:48;97513.19;;;6.48;58.73
4199;BME280;2113;50.946;14.610;2023-05-09T05:49:17;97507.59;;;6.54;59.49
4199;BME280;2113;50.946;14.610;2023-05-09T05:51:45;97510.38;;;6.64;58.96
4199;BME280;2113;50.946;14.610;2023-05-09T05:54:15;97509.75;;;6.73;58.14
4199;BME280;2113;50.946;14.610;2023-05-09T05:56:44;97508.31;;;6.82;56.74
4199;BME280;2113;50.946;14.610;2023-05-09T05:59:13;97504.78;;;6.83;56.93
4199;BME280;2113;50.946;14.610;2023-05-09T06:01:42;97500.91;;;6.88;56.70
4199;BME280;2113;50.946;14.610;2023-05-09T06:04:11;97504.34;;;6.89;57.56
4199;BME280;2113;50.946;14.610;2023-05-09T06:06:41;97496.53;;;7.01;57.34
4199;BME280;2113;50.946;14.610;2023-05-09T06:09:09;97494.97;;;6.99;57.11
4199;BME280;2113;50.946;14.610;2023-05-09T06:11:40;97494.56;;;7.05;56.56
4199;BME280;2113;50.946;14.610;2023-05-09T06:14:08;97485.59;;;7.22;57.24
4199;BME280;2113;50.946;14.610;2023-05-09T06:16:37;97494.72;;;7.27;56.41
4199;BME280;2113;50.946;14.610;2023-05-09T06:19:07;97498.97;;;7.28;56.41
4199;BME280;2113;50.946;14.610;2023-05-09T06:21:36;97486.59;;;7.32;53.78
4199;BME280;2113;50.946;14.610;2023-05-09T06:24:05;97489.66;;;7.49;54.90
4199;BME280;2113;50.946;14.610;2023-05-09T06:26:48;97496.56;;;7.62;55.24
4199;BME280;2113;50.946;14.610;2023-05-09T06:29:17;97494.41;;;7.56;54.54
4199;BME280;2113;50.946;14.610;2023-05-09T06:31:47;97488.81;;;7.73;54.64
4199;BME280;2113;50.946;14.610;2023-05-09T06:34:15;97484.88;;;7.67;54.50
4199;BME280;2113;50.946;14.610;2023-05-09T06:36:43;97480.41;;;7.69;53.95
4199;BME280;2113;50.946;14.610;2023-05-09T06:39:12;97476.84;;;7.94;54.70
4199;BME280;2113;50.946;14.610;2023-05-09T06:41:40;97471.72;;;8.05;53.78
4199;BME280;2113;50.946;14.610;2023-05-09T06:44:10;97477.59;;;8.07;52.85
4199;BME280;2113;50.946;14.610;2023-05-09T06:46:39;97479.75;;;8.13;52.91
4199;BME280;2113;50.946;14.610;2023-05-09T06:49:07;97472.06;;;8.12;52.13
4199;BME280;2113;50.946;14.610;2023-05-09T06:51:37;97469.00;;;8.98;49.93
4199;BME280;2113;50.946;14.610;2023-05-09T06:54:05;97460.84;;;11.52;42.12
4199;BME280;2113;50.946;14.610;2023-05-09T06:56:34;97452.31;;;12.46;40.25
4199;BME280;2113;50.946;14.610;2023-05-09T06:59:03;97462.16;;;12.71;39.40
4199;BME280;2113;50.946;14.610;2023-05-09T07:01:33;97453.53;;;12.98;38.86
4199;BME280;2113;50.946;14.610;2023-05-09T07:04:01;97448.91;;;13.65;37.14
4199;BME280;2113;50.946;14.610;2023-05-09T07:06:30;97449.94;;;13.54;38.00
4199;BME280;2113;50.946;14.610;2023-05-09T07:08:59;97445.00;;;14.04;36.67
4199;BME280;2113;50.946;14.610;2023-05-09T07:11:27;97438.78;;;14.49;35.53
4199;BME280;2113;50.946;14.610;2023-05-09T07:13:55;97433.38;;;13.89;36.08
4199;BME280;2113;50.946;14.610;2023-05-09T07:16:24;97436.41;;;13.76;36.35
4199;BME280;2113;50.946;14.610;2023-05-09T07:18:56;97438.59;;;13.53;36.84
4199;BME280;2113;50.946;14.610;2023-05-09T07:21:24;97421.38;;;13.86;37.27
4199;BME280;2113;50.946;14.610;2023-05-09T07:23:52;97415.31;;;13.68;38.12
4199;BME280;2113;50.946;14.610;2023-05-09T07:26:21;97418.50;;;14.93;35.97
4199;BME280;2113;50.946;14.610;2023-05-09T07:28:50;97419.00;;;14.63;36.75
4199;BME280;2113;50.946;14.610;2023-05-09T07:31:19;97402.84;;;14.06;35.21
4199;BME280;2113;50.946;14.610;2023-05-09T07:33:48;97406.00;;;13.56;37.70
4199;BME280;2113;50.946;14.610;2023-05-09T07:36:17;97398.34;;;14.68;36.69
4199;BME280;2113;50.946;14.610;2023-05-09T07:38:46;97395.38;;;16.28;32.90
4199;BME280;2113;50.946;14.610;2023-05-09T07:41:16;97388.00;;;14.40;35.69
4199;BME280;2113;50.946;14.610;2023-05-09T07:43:44;97391.94;;;14.70;37.27
4199;BME280;2113;50.946;14.610;2023-05-09T07:46:13;97393.66;;;15.46;34.88
4199;BME280;2113;50.946;14.610;2023-05-09T07:48:42;97379.53;;;16.44;32.75
4199;BME280;2113;50.946;14.610;2023-05-09T07:51:10;97375.97;;;15.56;36.11
4199;BME280;2113;50.946;14.610;2023-05-09T07:53:40;97375.66;;;16.24;34.62
4199;BME280;2113;50.946;14.610;2023-05-09T07:56:08;97373.28;;;15.48;35.27
4199;BME280;2113;50.946;14.610;2023-05-09T07:58:37;97371.50;;;16.29;34.03
4199;BME280;2113;50.946;14.610;2023-05-09T08:01:06;97366.38;;;16.44;31.77
4199;BME280;2113;50.946;14.610;2023-05-09T08:03:34;97365.66;;;16.58;31.76
4199;BME280;2113;50.946;14.610;2023-05-09T08:06:03;97364.88;;;16.42;32.76
4199;BME280;2113;50.946;14.610;2023-05-09T08:08:31;97366.25;;;15.64;32.68
4199;BME280;2113;50.946;14.610;2023-05-09T08:11:03;97359.28;;;17.31;32.59
4199;BME280;2113;50.946;14.610;2023-05-09T08:13:31;97359.19;;;17.47;31.18
4199;BME280;2113;50.946;14.610;2023-05-09T08:16:00;97360.84;;;15.58;32.97
4199;BME280;2113;50.946;14.610;2023-05-09T08:18:29;97352.88;;;17.25;32.63
4199;BME280;2113;50.946;14.610;2023-05-09T08:20:58;97352.69;;;16.96;31.85
4199;BME280;2113;50.946;14.610;2023-05-09T08:23:27;97345.06;;;18.38;30.84
4199;BME280;2113;50.946;14.610;2023-05-09T08:25:56;97350.13;;;17.72;30.67
4199;BME280;2113;50.946;14.610;2023-05-09T08:28:26;97353.06;;;14.90;34.29
4199;BME280;2113;50.946;14.610;2023-05-09T08:30:55;97350.44;;;16.13;32.80
4199;BME280;2113;50.946;14.610;2023-05-09T08:33:24;97343.22;;;16.79;32.81
4199;BME280;2113;50.946;14.610;2023-05-09T08:35:53;97339.41;;;16.02;31.13
4199;BME280;2113;50.946;14.610;2023-05-09T08:38:22;97327.69;;;16.84;30.91
4199;BME280;2113;50.946;14.610;2023-05-09T08:40:51;97342.81;;;16.51;32.13
4199;BME280;2113;50.946;14.610;2023-05-09T08:43:20;97341.16;;;16.42;33.44
4199;BME280;2113;50.946;14.610;2023-05-09T08:45:55;97330.22;;;15.97;35.19
4199;BME280;2113;50.946;14.610;2023-05-09T08:48:27;97325.28;;;16.74;32.02
4199;BME280;2113;50.946;14.610;2023-05-09T08:50:55;97325.72;;;17.17;33.15
4199;BME280;2113;50.946;14.610;2023-05-09T08:53:25;97322.59;;;16.19;31.52
4199;BME280;2113;50.946;14.610;2023-05-09T08:55:54;97327.59;;;16.69;33.49
4199;BME280;2113;50.946;14.610;2023-05-09T08:58:22;97323.41;;;17.14;33.39
4199;BME280;2113;50.946;14.610;2023-05-09T09:00:52;97323.09;;;17.62;29.78
4199;BME280;2113;50.946;14.610;2023-05-09T09:03:23;97320.97;;;16.73;31.84
4199;BME280;2113;50.946;14.610;2023-05-09T09:05:53;97314.56;;;17.98;31.74
4199;BME280;2113;50.946;14.610;2023-05-09T09:08:22;97319.91;;;16.90;33.57
4199;BME280;2113;50.946;14.610;2023-05-09T09:10:51;97311.63;;;16.62;33.52
4199;BME280;2113;50.946;14.610;2023-05-09T09:13:21;97305.44;;;17.09;32.55
4199;BME280;2113;50.946;14.610;2023-05-09T09:15:53;97305.78;;;17.37;31.22
4199;BME280;2113;50.946;14.610;2023-05-09T09:18:29;97308.97;;;18.30;29.91
4199;BME280;2113;50.946;14.610;2023-05-09T09:21:05;97312.78;;;17.75;32.09
4199;BME280;2113;50.946;14.610;2023-05-09T09:23:36;97306.47;;;16.14;32.46
4199;BME280;2113;50.946;14.610;2023-05-09T09:26:06;97308.09;;;16.23;34.31
4199;BME280;2113;50.946;14.610;2023-05-09T09:28:35;97298.00;;;17.66;32.28
4199;BME280;2113;50.946;14.610;2023-05-09T09:31:20;97289.88;;;15.97;32.96
4199;BME280;2113;50.946;14.610;2023-05-09T09:33:49;97288.91;;;17.69;31.44
4199;BME280;2113;50.946;14.610;2023-05-09T09:36:25;97289.91;;;18.64;31.08
4199;BME280;2113;50.946;14.610;2023-05-09T09:38:58;97288.59;;;18.45;30.81
4199;BME280;2113;50.946;14.610;2023-05-09T09:41:31;97290.19;;;18.69;29.41
4199;BME280;2113;50.946;14.610;2023-05-09T09:44:05;97296.84;;;16.92;33.54
4199;BME280;2113;50.946;14.610;2023-05-09T09:46:51;97297.41;;;17.33;31.92
4199;BME280;2113;50.946;14.610;2023-05-09T09:49:21;97280.88;;;18.44;34.07
4199;BME280;2113;50.946;14.610;2023-05-09T09:51:55;97298.66;;;16.45;31.66
4199;BME280;2113;50.946;14.610;2023-05-09T09:54:42;97289.53;;;16.55;31.69
4199;BME280;2113;50.946;14.610;2023-05-09T09:57:11;97285.25;;;18.52;30.01
4199;BME280;2113;50.946;14.610;2023-05-09T09:59:59;97282.66;;;17.62;32.85
4199;BME280;2113;50.946;14.610;2023-05-09T10:02:31;97288.25;;;17.67;31.25
4199;BME280;2113;50.946;14.610;2023-05-09T10:05:09;97288.75;;;17.85;30.34
4199;BME280;2113;50.946;14.610;2023-05-09T10:07:37;97287.41;;;17.89;31.36
4199;BME280;2113;50.946;14.610;2023-05-09T10:10:07;97287.06;;;17.47;31.57
4199;BME280;2113;50.946;14.610;2023-05-09T10:12:36;97283.91;;;16.19;31.69
4199;BME280;2113;50.946;14.610;2023-05-09T10:15:06;97280.81;;;16.55;32.44
4199;BME280;2113;50.946;14.610;2023-05-09T10:17:38;97270.28;;;16.63;32.09
4199;BME280;2113;50.946;14.610;2023-05-09T10:20:08;97270.06;;;16.25;33.35
4199;BME280;2113;50.946;14.610;2023-05-09T10:22:38;97258.69;;;16.72;33.95
4199;BME280;2113;50.946;14.610;2023-05-09T10:25:12;97254.31;;;16.48;29.16
4199;BME280;2113;50.946;14.610;2023-05-09T10:27:44;97251.50;;;18.09;30.89
4199;BME280;2113;50.946;14.610;2023-05-09T10:30:16;97250.91;;;16.79;31.17
4199;BME280;2113;50.946;14.610;2023-05-09T10:32:52;97245.53;;;16.17;33.24
4199;BME280;2113;50.946;14.610;2023-05-09T10:35:25;97241.47;;;16.84;32.17
4199;BME280;2113;50.946;14.610;2023-05-09T10:37:55;97248.03;;;16.02;31.78
4199;BME280;2113;50.946;14.610;2023-05-09T10:40:25;97240.66;;;16.45;35.74
4199;BME280;2113;50.946;14.610;2023-05-09T10:42:54;97239.75;;;17.37;32.44
4199;BME280;2113;50.946;14.610;2023-05-09T10:45:23;97231.88;;;17.14;35.03
4199;BME280;2113;50.946;14.610;2023-05-09T10:47:53;97225.75;;;17.36;32.94
4199;BME280;2113;50.946;14.610;2023-05-09T10:50:23;97233.16;;;17.18;30.99
4199;BME280;2113;50.946;14.610;2023-05-09T10:53:05;97226.59;;;17.14;29.27
4199;BME280;2113;50.946;14.610;2023-05-09T10:55:35;97220.78;;;17.19;32.10
4199;BME280;2113;50.946;14.610;2023-05-09T10:58:22;97221.28;;;15.66;31.95
4199;BME280;2113;50.946;14.610;2023-05-09T11:00:52;97219.00;;;16.65;33.39
4199;BME280;2113;50.946;14.610;2023-05-09T11:03:25;97216.03;;;15.66;33.68
4199;BME280;2113;50.946;14.610;2023-05-09T11:05:56;97217.63;;;16.39;33.44
4199;BME280;2113;50.946;14.610;2023-05-09T11:08:25;97213.44;;;16.83;31.59
4199;BME280;2113;50.946;14.610;2023-05-09T11:10:55;97203.41;;;16.09;31.90
4199;BME280;2113;50.946;14.610;2023-05-09T11:13:30;97204.44;;;16.69;35.74
4199;BME280;2113;50.946;14.610;2023-05-09T11:16:09;97210.16;;;16.42;31.55
4199;BME280;2113;50.946;14.610;2023-05-09T11:18:52;97196.63;;;16.84;33.50
4199;BME280;2113;50.946;14.610;2023-05-09T11:21:20;97186.09;;;17.07;33.95
4199;BME280;2113;50.946;14.610;2023-05-09T11:23:49;97183.50;;;17.22;34.76
4199;BME280;2113;50.946;14.610;2023-05-09T11:26:21;97183.75;;;16.81;33.69
4199;BME280;2113;50.946;14.610;2023-05-09T11:28:52;97175.84;;;16.81;34.90
4199;BME280;2113;50.946;14.610;2023-05-09T11:31:21;97170.63;;;16.96;32.46
4199;BME280;2113;50.946;14.610;2023-05-09T11:33:49;97168.38;;;16.62;34.64
4199;BME280;2113;50.946;14.610;2023-05-09T11:36:29;97178.22;;;16.06;33.33
4199;BME280;2113;50.946;14.610;2023-05-09T11:39:02;97156.13;;;16.46;34.12
4199;BME280;2113;50.946;14.610;2023-05-09T11:41:38;97160.25;;;17.17;33.99
4199;BME280;2113;50.946;14.610;2023-05-09T11:44:12;97151.22;;;17.34;32.21
4199;BME280;2113;50.946;14.610;2023-05-09T11:46:44;97143.53;;;15.86;30.92
4199;BME280;2113;50.946;14.610;2023-05-09T11:49:13;97154.44;;;16.53;33.07
4199;BME280;2113;50.946;14.610;2023-05-09T11:51:44;97143.34;;;17.26;33.45
4199;BME280;2113;50.946;14.610;2023-05-09T11:54:12;97140.09;;;17.01;33.49
4199;BME280;2113;50.946;14.610;2023-05-09T11:56:41;97142.38;;;16.82;33.67
4199;BME280;2113;50.946;14.610;2023-05-09T11:59:10;97141.63;;;16.96;32.42
4199;BME280;2113;50.946;14.610;2023-05-09T12:01:41;97140.06;;;16.56;31.81
4199;BME280;2113;50.946;14.610;2023-05-09T12:04:09;97126.09;;;16.24;33.21
4199;BME280;2113;50.946;14.610;2023-05-09T12:06:38;97117.06;;;16.95;34.58
4199;BME280;2113;50.946;14.610;2023-05-09T12:09:08;97127.47;;;16.43;32.17
4199;BME280;2113;50.946;14.610;2023-05-09T12:11:37;97128.66;;;16.02;31.78
4199;BME280;2113;50.946;14.610;2023-05-09T12:14:06;97120.59;;;16.03;33.10
4199;BME280;2113;50.946;14.610;2023-05-09T12:16:34;97109.50;;;15.85;31.67
4199;BME280;2113;50.946;14.610;2023-05-09T12:19:12;97106.31;;;15.97;31.89
4199;BME280;2113;50.946;14.610;2023-05-09T12:21:41;97090.78;;;16.03;33.56
4199;BME280;2113;50.946;14.610;2023-05-09T12:24:11;97106.22;;;16.14;32.75
4199;BME280;2113;50.946;14.610;2023-05-09T12:26:39;97103.63;;;15.58;33.45
4199;BME280;2113;50.946;14.610;2023-05-09T12:29:07;97101.38;;;16.25;33.46
4199;BME280;2113;50.946;14.610;2023-05-09T12:31:36;97094.56;;;16.62;34.76
4199;BME280;2113;50.946;14.610;2023-05-09T12:34:04;97084.00;;;16.62;33.63
4199;BME280;2113;50.946;14.610;2023-05-09T12:36:34;97087.34;;;16.33;32.55
4199;BME280;2113;50.946;14.610;2023-05-09T12:39:07;97079.28;;;16.26;31.76
4199;BME280;2113;50.946;14.610;2023-05-09T12:41:43;97085.34;;;16.58;34.04
4199;BME280;2113;50.946;14.610;2023-05-09T12:44:27;97081.06;;;16.65;32.25
4199;BME280;2113;50.946;14.610;2023-05-09T12:46:57;97089.22;;;16.16;31.06
4199;BME280;2113;50.946;14.610;2023-05-09T12:49:26;97070.09;;;16.45;34.53
4199;BME280;2113;50.946;14.610;2023-05-09T12:51:56;97068.22;;;16.31;30.65
4199;BME280;2113;50.946;14.610;2023-05-09T12:54:28;97060.44;;;16.60;30.81
4199;BME280;2113;50.946;14.610;2023-05-09T12:56:58;97053.53;;;16.37;29.90
4199;BME280;2113;50.946;14.610;2023-05-09T12:59:27;97061.88;;;16.25;31.51
4199;BME280;2113;50.946;14.610;2023-05-09T13:01:58;97053.91;;;16.03;30.15
4199;BME280;2113;50.946;14.610;2023-05-09T13:04:27;97057.50;;;16.32;32.08
4199;BME280;2113;50.946;14.610;2023-05-09T13:06:56;97050.88;;;16.82;30.65
4199;BME280;2113;50.946;14.610;2023-05-09T13:09:26;97044.94;;;17.03;29.16
4199;BME280;2113;50.946;14.610;2023-05-09T13:11:56;97037.81;;;16.89;28.02
4199;BME280;2113;50.946;14.610;2023-05-09T13:14:26;97038.09;;;16.94;32.58
4199;BME280;2113;50.946;14.610;2023-05-09T13:16:54;97042.66;;;17.15;32.45
4199;BME280;2113;50.946;14.610;2023-05-09T13:19:23;97035.78;;;17.72;32.32
4199;BME280;2113;50.946;14.610;2023-05-09T13:21:53;97032.75;;;17.31;31.37
4199;BME280;2113;50.946;14.610;2023-05-09T13:24:22;97030.13;;;17.31;31.99
4199;BME280;2113;50.946;14.610;2023-05-09T13:26:50;97023.28;;;17.37;33.34
4199;BME280;2113;50.946;14.610;2023-05-09T13:29:19;97029.75;;;17.05;32.51
4199;BME280;2113;50.946;14.610;2023-05-09T13:31:48;97027.00;;;17.13;32.09
4199;BME280;2113;50.946;14.610;2023-05-09T13:34:17;97033.72;;;16.86;29.67